• Join FlightAware (Why Join?)
  • Login
  • US Flag 
10:53PM EDT


 

Airport Tracker/Info


-or-


 

Live Flight TrackerFlight Track Log ✈ UAL5887 ✈ 14-Apr-2013 ✈ KORD - CYOW

Flight Track Log - Related Links

Times and Time Zones

All times are in EDT time to prevent confusion due to time zone crossing. See the UAL5887 flight status page for this flight to view local times or setup timezone preferences in your user account.

Time Position Orientation Groundspeed Altitude Reporting Facility
EDT Latitude Longitude Course Direction KTS MPH feet Rate Location/Type
10:55AM 42.0000 -87.8833 56° Northeast 156 180 1,400  Level Chicago TRACON
10:56AM 42.0333 -87.8167 56° Northeast 213 245 4,000 2,580 Climbing Chicago TRACON
10:58AM 42.1114 -87.5997 64° Northeast 315 362 10,400 2,340 Climbing Chicago Center
10:59AM 42.1475 -87.4861 67° East 330 380 12,200 2,040 Climbing Chicago Center
11:00AM 42.1739 -87.3381 76° East 340 391 14,600 2,040 Climbing Chicago Center
11:01AM 42.1808 -87.2056 86° East 353 406 16,400 1,320 Climbing Chicago Center
11:02AM 42.1875 -87.0714 86° East 359 413 17,400 780 Climbing Chicago Center
11:03AM 42.1950 -86.9228 86° East 393 452 18,000 840 Climbing Chicago Center
11:04AM 42.2019 -86.7669 87° East 414 476 19,200 1,140 Climbing Chicago Center
11:05AM 42.2097 -86.6050 86° East 424 488 20,400 960 Climbing Chicago Center
11:06AM 42.2161 -86.4408 87° East 435 501 21,200 960 Climbing Chicago Center
11:07AM 42.2239 -86.2725 86° East 447 514 22,400 1,140 Climbing Chicago Center
11:08AM 42.2308 -86.1031 87° East 451 519 23,600 1,080 Climbing Chicago Center
11:09AM 42.2378 -85.9156 87° East 449 517 24,700 1,140 Climbing Chicago Center
11:10AM 42.2439 -85.7494 87° East 447 514 26,000 1,200 Climbing Chicago Center
11:12AM 42.2514 -85.5814 86° East 450 518 27,200 1,080 Climbing Chicago Center
11:13AM 42.2572 -85.4156 87° East 448 516 28,300 840 Climbing Chicago Center
11:14AM 42.2628 -85.2461 87° East 453 521 29,000 300 Climbing Chicago Center
11:15AM 42.2694 -85.0378 87° East 463 533 29,000  Level Chicago Center
11:16AM 42.2756 -84.8550 87° East 482 555 29,000  Level Chicago Center
11:17AM 42.2806 -84.6675 88° East 495 570 29,000 180 Level Chicago Center
11:18AM 42.2864 -84.4569 88° East 500 575 29,400 900 Climbing Cleveland Center
11:19AM 42.3111 -84.2786 79° East 494 568 30,900 780 Climbing Cleveland Center
11:20AM 42.3375 -84.1003 79° East 488 562 31,000  Climbing Cleveland Center
11:21AM 42.3639 -83.9161 79° East 488 562 31,000  Level Cleveland Center
11:22AM 42.3900 -83.7292 79° East 494 568 31,000  Level Cleveland Center
11:23AM 42.4175 -83.5617 77° East 499 574 31,000  Level Cleveland Center
11:24AM 42.4614 -83.3892 71° East 499 574 31,000  Level Cleveland Center
11:25AM 42.5072 -83.2167 70° East 493 567 31,000  Level Cleveland Center
11:26AM 42.5547 -83.0439 69° East 488 562 31,000  Level Cleveland Center
11:27AM 42.6000 -82.8708 70° East 483 556 31,000  Level Cleveland Center
11:28AM 42.6472 -82.6975 70° East 483 556 31,000  Level Cleveland Center
11:29AM 42.6919 -82.5211 71° East 483 556 31,000  Level Cleveland Center
11:30AM 42.7383 -82.3472 70° East 483 556 31,000  Level Cleveland Center
11:31AM 42.7972 -82.1792 64° Northeast 483 556 31,000  Level Cleveland Center
11:32AM 42.8597 -82.0136 63° Northeast 483 556 31,000  Level Cleveland Center
11:32AM 42.9167 -81.8667 62° Northeast 490 564 31,000  Level Toronto Center
11:33AM 42.9667 -81.7000 68° East 490 564 31,000  Level Toronto Center
11:34AM 43.0167 -81.5333 68° East 490 564 31,000  Level Toronto Center
11:35AM 43.0833 -81.3667 61° Northeast 500 575 31,000  Level Toronto Center
11:36AM 43.1333 -81.1833 69° East 500 575 31,000  Level Toronto Center
11:37AM 43.2000 -81.0333 59° Northeast 500 575 31,000  Level Toronto Center
11:38AM 43.2500 -80.8500 69° East 500 575 31,000  Level Toronto Center
11:39AM 43.3333 -80.6667 58° Northeast 490 564 31,000  Level Toronto Center
11:40AM 43.3833 -80.5000 68° East 500 575 31,000  Level Toronto Center
11:41AM 43.4500 -80.3500 58° Northeast 490 564 31,000  Level Toronto Center
11:42AM 43.5000 -80.1667 69° East 490 564 31,000  Level Toronto Center
11:43AM 43.5667 -79.9833 63° Northeast 500 575 31,000  Level Toronto Center
11:44AM 43.6167 -79.8167 67° East 500 575 31,000  Level Toronto Center
11:45AM 43.6833 -79.6500 61° Northeast 500 575 31,000  Level Toronto Center
11:46AM 43.7333 -79.4667 69° East 500 575 31,000  Level Toronto Center
11:47AM 43.8000 -79.2833 63° Northeast 500 575 31,000  Level Toronto Center
11:48AM 43.8500 -79.1000 69° East 500 575 31,000  Level Toronto Center
11:49AM 43.9167 -78.9333 61° Northeast 500 575 31,000  Level Toronto Center
11:50AM 43.9667 -78.7500 69° East 500 575 31,000  Level Toronto Center
11:51AM 44.0333 -78.5833 61° Northeast 500 575 31,000  Level Toronto Center
11:52AM 44.0667 -78.4333 73° East 500 575 31,000  Level Toronto Center
11:53AM 44.1333 -78.2333 65° Northeast 490 564 31,000  Level Toronto Center
11:54AM 44.1833 -78.0667 67° East 490 564 31,000 -120 Level Toronto Center
11:55AM 44.2500 -77.8833 63° Northeast 490 564 30,800 -840 Descending Toronto Center
11:56AM 44.3000 -77.7167 67° East 480 552 29,400 -1,500 Descending Toronto Center
11:57AM 44.3500 -77.5833 62° Northeast 440 506 27,900 -1,500 Descending Toronto Center
11:58AM 44.4000 -77.4333 65° Northeast 400 460 26,400 -1,980 Descending Toronto Center
11:59AM 44.4667 -77.3500 42° Northeast 380 437 24,000 -2,340 Descending Montreal Center
12:00PM 44.5167 -77.2333 59° Northeast 380 437 21,800 -2,160 Descending Montreal Center
12:01PM 44.5667 -77.1000 62° Northeast 380 437 19,700 -2,220 Descending Montreal Center
12:02PM 44.6333 -76.9833 51° Northeast 370 426 17,400 -2,280 Descending Montreal Center
12:03PM 44.6833 -76.8667 59° Northeast 350 403 15,200 -2,340 Descending Montreal Center
12:04PM 44.7333 -76.7667 55° Northeast 340 391 12,800 -2,100 Descending Montreal Center
12:05PM 44.7833 -76.6500 59° Northeast 330 380 11,000 -1,740 Descending Montreal Center
12:06PM 44.8333 -76.5667 50° Northeast 290 334 9,400 -1,500 Descending Montreal Center
12:07PM 44.8833 -76.4833 50° Northeast 280 322 8,100 -720 Descending Montreal Center
12:08PM 44.9167 -76.4000 61° Northeast 280 322 8,000 -60 Descending Montreal Center
12:09PM 44.9500 -76.3000 65° Northeast 280 322 8,000  Level Montreal Center
12:10PM 44.9667 -76.1833 79° East 280 322 8,000  Level Montreal Center
12:11PM 45.0000 -76.0833 65° Northeast 270 311 8,000 -60 Level Montreal Center
12:12PM 45.0167 -75.9667 79° East 280 322 7,900 -960 Descending Montreal Center
12:13PM 45.0333 -75.8667 77° East 260 299 6,100 -1,800 Descending Montreal Center
12:14PM 45.0500 -75.7833 74° East 270 311 4,400 -1,080 Descending Montreal Center
12:15PM 45.0833 -75.6833 65° Northeast 250 288 4,000 -540 Descending Montreal Center
12:16PM 45.1000 -75.5833 77° East 240 276 3,400 -600 Descending Montreal Center
12:17PM 45.1333 -75.5167 55° Northeast 230 265 2,800 -480 Descending Montreal Center
12:18PM 45.2000 -75.5000 10° North 220 253 2,500 -240 Descending Montreal Center
12:19PM 45.2333 -75.5333 325° Northwest 200 230 2,400 -540 Descending Montreal Center
12:20PM 45.2667 -75.5833 313° West 140 161 1,500 -780 Descending Montreal Center
12:21PM 45.2833 -75.6333 295° West 120 138 900 -600 Descending Montreal Center
12:22PM 45.3000 -75.6667 305° West 120 138 400 -540 Descending Montreal Center